createdAt,value
2022-08-26T00:02:31.943Z,21.03
2022-08-26T00:05:20.620Z,20.98
2022-08-26T00:08:13.021Z,21.02
2022-08-26T00:11:02.054Z,20.61
2022-08-26T00:13:50.639Z,20.96
2022-08-26T00:16:40.932Z,20.91
2022-08-26T00:19:36.061Z,20.99
2022-08-26T00:22:24.656Z,20.93
2022-08-26T00:25:16.067Z,20.93
2022-08-26T00:28:06.301Z,20.87
2022-08-26T00:30:55.984Z,20.77
2022-08-26T00:33:44.649Z,20.77
2022-08-26T00:36:33.177Z,20.78
2022-08-26T00:39:21.949Z,20.77
2022-08-26T00:42:12.058Z,20.71
2022-08-26T00:45:00.615Z,20.52
2022-08-26T00:47:51.201Z,20.48
2022-08-26T00:50:43.292Z,20.61
2022-08-26T00:53:34.446Z,20.45
2022-08-26T00:56:25.385Z,20.21
2022-08-26T00:59:17.184Z,20.41
2022-08-26T01:02:06.349Z,20.45
2022-08-26T01:04:58.068Z,20.37
2022-08-26T01:07:46.789Z,20.48
2022-08-26T01:10:35.398Z,20.38
2022-08-26T01:13:24.340Z,20.29
2022-08-26T01:16:16.850Z,20.37
2022-08-26T01:19:12.729Z,20.35
2022-08-26T01:22:03.904Z,20.23
2022-08-26T01:24:53.934Z,20.28
2022-08-26T01:27:43.354Z,20.18
2022-08-26T01:30:35.141Z,20.14
2022-08-26T01:33:26.535Z,20.08
2022-08-26T01:36:15.676Z,20.15
2022-08-26T01:39:05.834Z,20.14
2022-08-26T01:41:58.576Z,20.06
2022-08-26T01:44:54.077Z,20.11
2022-08-26T01:47:43.266Z,20.17
2022-08-26T01:50:34.149Z,19.80
2022-08-26T01:53:23.232Z,20.09
2022-08-26T01:56:13.005Z,20.11
2022-08-26T01:59:05.052Z,20.18
2022-08-26T02:01:54.444Z,20.05
2022-08-26T02:04:48.605Z,20.13
2022-08-26T02:07:39.724Z,20.04
2022-08-26T02:10:28.224Z,20.06
2022-08-26T02:13:16.801Z,19.91
2022-08-26T02:16:08.407Z,19.89
2022-08-26T02:18:58.568Z,19.88
2022-08-26T02:21:51.226Z,19.91
2022-08-26T02:24:49.386Z,19.82
2022-08-26T02:27:38.206Z,19.81
2022-08-26T02:30:28.789Z,19.72
2022-08-26T02:33:18.639Z,19.72
2022-08-26T02:36:08.042Z,19.72
2022-08-26T02:38:56.700Z,19.69
2022-08-26T02:41:46.866Z,19.57
2022-08-26T02:44:36.776Z,19.39
2022-08-26T02:47:25.487Z,19.61
2022-08-26T02:50:19.334Z,19.62
2022-08-26T02:53:08.284Z,19.57
2022-08-26T02:55:56.953Z,19.52
2022-08-26T02:58:48.664Z,19.45
2022-08-26T03:01:37.449Z,19.41
2022-08-26T03:04:26.123Z,19.39
2022-08-26T03:07:16.174Z,19.38
2022-08-26T03:10:08.718Z,19.40
2022-08-26T03:12:58.080Z,19.32
2022-08-26T03:15:47.641Z,19.14
2022-08-26T03:18:36.561Z,18.94
2022-08-26T03:21:25.083Z,18.90
2022-08-26T03:24:15.488Z,18.69
2022-08-26T03:27:05.973Z,18.98
2022-08-26T03:30:13.237Z,18.96
2022-08-26T03:33:03.555Z,18.77
2022-08-26T03:35:53.093Z,18.81
2022-08-26T03:38:41.666Z,18.76
2022-08-26T03:41:34.913Z,18.67
2022-08-26T03:44:23.408Z,18.79
2022-08-26T03:47:12.007Z,18.77
2022-08-26T03:50:00.869Z,18.77
2022-08-26T03:52:49.875Z,18.80
2022-08-26T03:55:38.723Z,18.79
2022-08-26T03:58:29.260Z,18.78
2022-08-26T04:01:17.828Z,18.68
2022-08-26T04:04:07.753Z,18.64
2022-08-26T04:06:58.439Z,18.59
2022-08-26T04:09:47.457Z,18.55
2022-08-26T04:12:37.221Z,18.68
2022-08-26T04:15:27.909Z,18.60
2022-08-26T04:18:16.809Z,18.46
2022-08-26T04:21:07.780Z,18.41
2022-08-26T04:23:58.340Z,18.44
2022-08-26T04:26:46.966Z,18.32
2022-08-26T04:29:35.508Z,18.36
2022-08-26T04:32:25.499Z,18.35
2022-08-26T04:35:14.012Z,18.34
2022-08-26T04:38:03.263Z,18.33
2022-08-26T04:40:54.354Z,18.36
2022-08-26T04:43:42.903Z,18.44
2022-08-26T04:46:31.456Z,18.34
2022-08-26T04:49:21.671Z,18.31
2022-08-26T04:52:10.261Z,18.22
2022-08-26T04:54:59.029Z,18.21
2022-08-26T04:57:47.886Z,18.24
2022-08-26T05:00:36.463Z,17.98
2022-08-26T05:03:27.345Z,18.10
2022-08-26T05:06:20.626Z,18.15
2022-08-26T05:09:10.777Z,18.03
2022-08-26T05:11:59.311Z,18.11
2022-08-26T05:14:47.828Z,18.04
2022-08-26T05:17:36.428Z,18.23
2022-08-26T05:20:26.211Z,18.21
2022-08-26T05:23:17.166Z,18.22
2022-08-26T05:26:09.687Z,18.26
2022-08-26T05:28:58.781Z,18.29
2022-08-26T05:31:47.355Z,18.30
2022-08-26T05:34:37.468Z,18.21
2022-08-26T05:37:26.867Z,18.25
2022-08-26T05:40:16.808Z,18.31
2022-08-26T05:43:10.448Z,18.40
2022-08-26T05:46:06.944Z,18.50
2022-08-26T05:48:55.844Z,18.68
2022-08-26T05:51:46.372Z,18.98
2022-08-26T05:54:36.397Z,19.03
2022-08-26T05:57:29.098Z,19.16
2022-08-26T06:00:18.211Z,19.18
2022-08-26T06:03:08.339Z,19.38
2022-08-26T06:05:56.931Z,19.48
2022-08-26T06:08:47.547Z,19.58
2022-08-26T06:11:36.148Z,19.77
2022-08-26T06:14:26.889Z,19.90
2022-08-26T06:17:15.454Z,19.84
2022-08-26T06:20:04.817Z,20.05
2022-08-26T06:23:11.339Z,20.36
2022-08-26T06:26:00.342Z,20.20
2022-08-26T06:28:48.852Z,20.39
2022-08-26T06:31:40.082Z,20.61
2022-08-26T06:34:30.372Z,20.86
2022-08-26T06:37:19.459Z,21.18
2022-08-26T06:40:11.434Z,21.39
2022-08-26T06:43:00.513Z,21.62
2022-08-26T06:45:49.288Z,21.96
2022-08-26T06:48:40.155Z,22.23
2022-08-26T06:51:30.963Z,22.47
2022-08-26T06:54:22.875Z,23.09
2022-08-26T06:57:11.774Z,23.26
2022-08-26T07:00:00.243Z,23.52
2022-08-26T07:02:49.144Z,23.58
2022-08-26T07:05:39.124Z,23.45
2022-08-26T07:08:27.707Z,23.45
2022-08-26T07:11:16.390Z,23.75
2022-08-26T07:14:06.046Z,23.92
2022-08-26T07:16:54.774Z,24.12
2022-08-26T07:19:44.341Z,24.31
2022-08-26T07:22:34.453Z,24.18
2022-08-26T07:25:23.057Z,24.43
2022-08-26T07:28:12.041Z,24.43
2022-08-26T07:31:05.261Z,24.38
2022-08-26T07:33:58.391Z,24.34
2022-08-26T07:36:46.988Z,24.36
2022-08-26T07:39:40.405Z,24.26
2022-08-26T07:42:29.089Z,23.88
2022-08-26T07:45:18.196Z,24.22
2022-08-26T07:48:07.497Z,24.23
2022-08-26T07:50:56.092Z,23.83
2022-08-26T07:53:44.804Z,24.55
2022-08-26T07:56:38.064Z,24.99
2022-08-26T07:59:28.319Z,25.33
2022-08-26T08:02:19.211Z,25.49
2022-08-26T08:05:08.433Z,25.73
2022-08-26T08:08:26.306Z,25.92
2022-08-26T08:11:05.918Z,26.12
2022-08-26T08:13:56.830Z,25.97
2022-08-26T08:16:46.871Z,26.34
2022-08-26T08:19:39.045Z,26.62
2022-08-26T08:22:27.881Z,26.96
2022-08-26T08:25:16.658Z,26.80
2022-08-26T08:28:05.428Z,26.65
2022-08-26T08:30:55.989Z,26.47
2022-08-26T08:33:44.504Z,26.29
2022-08-26T08:36:35.838Z,26.33
2022-08-26T08:39:24.976Z,26.85
2022-08-26T08:42:31.775Z,27.06
2022-08-26T08:45:23.842Z,27.13
2022-08-26T08:48:17.270Z,27.30
2022-08-26T08:51:13.380Z,27.44
2022-08-26T08:54:03.258Z,27.69
2022-08-26T08:56:54.742Z,27.71
2022-08-26T08:59:53.193Z,28.13
2022-08-26T09:02:48.663Z,28.60
2022-08-26T09:05:48.575Z,28.85
2022-08-26T09:08:37.494Z,28.79
2022-08-26T09:11:26.038Z,28.99
2022-08-26T09:14:14.608Z,29.28
2022-08-26T09:17:08.893Z,29.30
2022-08-26T09:20:07.112Z,29.47
2022-08-26T09:22:57.725Z,29.55
2022-08-26T09:25:48.587Z,29.63
2022-08-26T09:28:37.203Z,29.75
2022-08-26T09:31:27.682Z,29.78
2022-08-26T09:34:19.161Z,30.21
2022-08-26T09:37:08.801Z,30.28
2022-08-26T09:40:13.789Z,30.14
2022-08-26T09:43:11.958Z,30.34
2022-08-26T09:46:13.589Z,30.41
2022-08-26T09:49:24.390Z,30.65
2022-08-26T09:52:23.435Z,30.69
2022-08-26T09:55:17.092Z,30.48
2022-08-26T09:58:08.763Z,30.74
2022-08-26T10:01:01.398Z,30.76
2022-08-26T10:03:50.641Z,30.86
2022-08-26T10:06:42.387Z,30.99
2022-08-26T10:09:35.373Z,31.09
2022-08-26T10:12:25.449Z,31.20
2022-08-26T10:15:15.819Z,31.34
2022-08-26T10:18:09.490Z,31.47
2022-08-26T10:21:03.959Z,31.60
2022-08-26T10:23:54.604Z,31.79
2022-08-26T10:26:57.927Z,31.82
2022-08-26T10:29:49.900Z,32.00
2022-08-26T10:32:46.012Z,31.86
2022-08-26T10:35:36.692Z,32.17
2022-08-26T10:38:29.444Z,32.36
2022-08-26T10:41:21.941Z,32.44
2022-08-26T10:44:13.043Z,32.43
2022-08-26T10:47:10.318Z,32.58
2022-08-26T10:50:03.346Z,32.57
2022-08-26T10:53:00.145Z,32.71
2022-08-26T10:55:55.057Z,33.01
2022-08-26T10:58:53.995Z,33.07
2022-08-26T11:01:50.838Z,33.27
2022-08-26T11:04:48.317Z,33.19
2022-08-26T11:07:40.382Z,33.14
2022-08-26T11:11:04.141Z,33.32
2022-08-26T11:14:01.098Z,33.60
2022-08-26T11:16:51.889Z,33.52
2022-08-26T11:20:13.609Z,33.72
2022-08-26T11:23:36.193Z,33.94
2022-08-26T11:26:56.182Z,33.46
2022-08-26T11:30:01.988Z,33.69
2022-08-26T11:32:52.980Z,33.46
2022-08-26T11:35:50.891Z,33.43
2022-08-26T11:38:43.241Z,33.33
2022-08-26T11:41:32.448Z,33.51
2022-08-26T11:44:23.027Z,33.33
2022-08-26T11:47:14.728Z,33.17
2022-08-26T11:50:13.418Z,32.50
2022-08-26T11:53:06.257Z,32.94
2022-08-26T11:55:56.460Z,33.24
2022-08-26T11:58:46.624Z,33.44
2022-08-26T12:01:36.832Z,33.60
2022-08-26T12:04:29.177Z,33.69
2022-08-26T12:07:23.858Z,33.71
2022-08-26T12:10:29.516Z,33.85
2022-08-26T12:13:23.231Z,33.67
2022-08-26T12:16:13.571Z,33.74
2022-08-26T12:19:02.418Z,34.07
2022-08-26T12:21:51.020Z,34.32
2022-08-26T12:24:44.595Z,34.43
2022-08-26T12:27:39.758Z,34.00
2022-08-26T12:30:30.019Z,34.18
2022-08-26T12:33:22.713Z,34.35
2022-08-26T12:36:12.348Z,33.93
2022-08-26T12:39:09.339Z,34.18
2022-08-26T12:41:59.368Z,34.07
2022-08-26T12:44:53.805Z,34.27
2022-08-26T12:47:44.471Z,34.23
2022-08-26T12:50:35.192Z,34.29
2022-08-26T12:53:25.147Z,34.45
2022-08-26T12:56:23.252Z,34.39
2022-08-26T12:59:23.743Z,34.66
2022-08-26T13:02:36.571Z,34.18
2022-08-26T13:05:27.593Z,34.01
2022-08-26T13:08:17.986Z,34.07
2022-08-26T13:11:13.546Z,34.17
2022-08-26T13:14:06.904Z,34.35
2022-08-26T13:16:55.926Z,34.48
2022-08-26T13:19:45.860Z,34.38
2022-08-26T13:22:34.736Z,34.19
2022-08-26T13:25:23.458Z,34.04
2022-08-26T13:28:12.039Z,34.23
2022-08-26T13:31:00.656Z,34.03
2022-08-26T13:33:49.672Z,33.91
2022-08-26T13:36:39.925Z,33.62
2022-08-26T13:39:28.502Z,33.78
2022-08-26T13:42:17.051Z,33.96
2022-08-26T13:45:06.430Z,33.94
2022-08-26T13:47:55.012Z,33.94
2022-08-26T13:50:43.528Z,33.91
2022-08-26T13:53:33.505Z,33.95
2022-08-26T13:56:22.889Z,34.13
2022-08-26T13:59:11.487Z,34.26
2022-08-26T14:02:01.750Z,33.98
2022-08-26T14:04:50.313Z,33.78
2022-08-26T14:07:38.843Z,33.55
2022-08-26T14:10:29.130Z,33.25
2022-08-26T14:13:18.344Z,33.01
2022-08-26T14:16:10.209Z,32.73
2022-08-26T14:19:01.188Z,32.71
2022-08-26T14:21:50.899Z,32.67
2022-08-26T14:24:39.491Z,32.65
2022-08-26T14:27:29.415Z,32.68
2022-08-26T14:30:18.618Z,32.43
2022-08-26T14:33:07.183Z,32.52
2022-08-26T14:36:16.480Z,32.47
2022-08-26T14:39:07.564Z,32.14
2022-08-26T14:41:56.970Z,32.03
2022-08-26T14:44:49.586Z,31.93
2022-08-26T14:47:38.092Z,31.69
2022-08-26T14:50:30.693Z,31.58
2022-08-26T14:53:36.733Z,31.58
2022-08-26T14:56:25.657Z,31.60
2022-08-26T14:59:15.232Z,31.56
2022-08-26T15:02:05.517Z,31.58
2022-08-26T15:04:54.204Z,31.62
2022-08-26T15:07:42.951Z,31.63
2022-08-26T15:10:31.563Z,31.56
2022-08-26T15:13:20.170Z,31.46
2022-08-26T15:16:08.868Z,31.27
2022-08-26T15:18:59.245Z,31.17
2022-08-26T15:21:48.312Z,31.09
2022-08-26T15:24:36.972Z,30.81
2022-08-26T15:27:25.580Z,30.97
2022-08-26T15:30:16.501Z,30.82
2022-08-26T15:33:05.176Z,30.64
2022-08-26T15:35:55.744Z,30.59
2022-08-26T15:38:44.476Z,30.22
2022-08-26T15:41:34.880Z,30.06
2022-08-26T15:44:23.756Z,30.09
2022-08-26T15:47:12.588Z,30.02
2022-08-26T15:50:01.218Z,29.97
2022-08-26T15:52:51.134Z,29.95
2022-08-26T15:55:39.674Z,29.85
2022-08-26T15:58:29.702Z,29.72
2022-08-26T16:01:24.384Z,29.58
2022-08-26T16:04:17.535Z,29.52
2022-08-26T16:07:06.142Z,29.48
2022-08-26T16:09:56.730Z,29.48
2022-08-26T16:12:45.334Z,29.39
2022-08-26T16:15:34.383Z,29.29
2022-08-26T16:18:23.601Z,29.22
2022-08-26T16:21:16.853Z,29.16
2022-08-26T16:24:05.910Z,29.06
2022-08-26T16:26:55.860Z,28.87
2022-08-26T16:29:44.459Z,28.90
2022-08-26T16:32:33.062Z,28.91
2022-08-26T16:35:21.616Z,28.89
2022-08-26T16:38:10.977Z,28.71
2022-08-26T16:41:01.043Z,28.77
2022-08-26T16:43:51.480Z,28.79
2022-08-26T16:46:41.121Z,28.37
2022-08-26T16:49:29.786Z,28.04
2022-08-26T16:52:18.525Z,27.72
2022-08-26T16:55:09.016Z,27.29
2022-08-26T16:57:57.579Z,27.08
2022-08-26T17:00:47.573Z,26.57
2022-08-26T17:03:36.421Z,25.52
2022-08-26T17:06:25.041Z,24.86
2022-08-26T17:09:16.733Z,24.30
2022-08-26T17:12:05.986Z,23.91
2022-08-26T17:14:54.575Z,23.81
2022-08-26T17:17:44.593Z,23.66
2022-08-26T17:20:33.580Z,22.95
2022-08-26T17:23:23.104Z,21.84
2022-08-26T17:26:12.812Z,21.45
2022-08-26T17:29:01.685Z,20.95
2022-08-26T17:31:50.175Z,21.26
2022-08-26T17:34:40.103Z,21.41
2022-08-26T17:37:28.697Z,21.68
2022-08-26T17:40:19.552Z,21.72
2022-08-26T17:43:12.201Z,21.85
2022-08-26T17:46:06.707Z,21.75
2022-08-26T17:48:56.295Z,21.85
2022-08-26T17:51:46.392Z,21.87
2022-08-26T17:54:34.901Z,21.90
2022-08-26T17:57:23.448Z,21.92
2022-08-26T18:00:15.461Z,22.08
2022-08-26T18:03:04.170Z,21.96
2022-08-26T18:05:53.443Z,21.62
2022-08-26T18:08:43.982Z,21.49
2022-08-26T18:11:34.283Z,21.65
2022-08-26T18:14:22.878Z,21.77
2022-08-26T18:17:11.464Z,21.77
2022-08-26T18:20:04.030Z,21.81
2022-08-26T18:22:52.635Z,21.73
2022-08-26T18:25:43.503Z,21.41
2022-08-26T18:28:32.221Z,21.70
2022-08-26T18:31:21.096Z,21.87
2022-08-26T18:34:12.765Z,21.94
2022-08-26T18:37:01.401Z,21.92
2022-08-26T18:39:50.036Z,21.92
2022-08-26T18:42:41.256Z,21.91
2022-08-26T18:45:29.833Z,21.83
2022-08-26T18:48:18.362Z,21.71
2022-08-26T18:51:07.245Z,21.69
2022-08-26T18:54:03.018Z,21.71
2022-08-26T18:56:51.735Z,21.82
2022-08-26T18:59:41.912Z,21.85
2022-08-26T19:02:30.712Z,21.90
2022-08-26T19:05:19.735Z,21.77
2022-08-26T19:08:08.765Z,21.72
2022-08-26T19:10:57.416Z,21.57
2022-08-26T19:13:46.404Z,21.43
2022-08-26T19:16:39.121Z,21.49
2022-08-26T19:19:27.719Z,21.64
2022-08-26T19:22:16.363Z,21.58
2022-08-26T19:25:05.402Z,21.57
2022-08-26T19:27:53.959Z,21.54
2022-08-26T19:30:44.230Z,21.63
2022-08-26T19:33:34.238Z,21.61
2022-08-26T19:36:24.737Z,21.48
2022-08-26T19:39:13.348Z,21.39
2022-08-26T19:42:01.923Z,21.31
2022-08-26T19:45:24.924Z,21.34
2022-08-26T19:48:14.194Z,21.30
2022-08-26T19:51:04.322Z,21.33
2022-08-26T19:53:54.255Z,21.37
2022-08-26T19:56:45.864Z,21.39
2022-08-26T19:59:37.322Z,21.30
2022-08-26T20:02:25.942Z,21.36
2022-08-26T20:05:16.122Z,21.40
2022-08-26T20:08:06.090Z,21.42
2022-08-26T20:10:55.184Z,21.42
2022-08-26T20:13:44.943Z,21.43
2022-08-26T20:16:33.796Z,21.52
2022-08-26T20:19:40.022Z,21.57
2022-08-26T20:22:28.857Z,21.55
2022-08-26T20:25:19.087Z,21.50
2022-08-26T20:28:07.651Z,21.51
2022-08-26T20:30:56.233Z,21.59
2022-08-26T20:33:46.326Z,21.61
2022-08-26T20:36:35.316Z,21.44
2022-08-26T20:39:23.906Z,21.65
2022-08-26T20:42:20.116Z,21.62
2022-08-26T20:45:11.913Z,21.61
2022-08-26T20:48:00.657Z,21.56
2022-08-26T20:50:49.222Z,21.63
2022-08-26T20:53:37.752Z,21.63
2022-08-26T20:56:26.670Z,21.62
2022-08-26T20:59:17.023Z,21.66
2022-08-26T21:02:05.559Z,21.63
2022-08-26T21:04:54.416Z,21.58
2022-08-26T21:07:43.016Z,21.41
2022-08-26T21:10:32.030Z,21.51
2022-08-26T21:13:21.411Z,21.51
2022-08-26T21:16:11.909Z,21.59
2022-08-26T21:19:00.711Z,21.53
2022-08-26T21:21:49.692Z,21.56
2022-08-26T21:24:38.282Z,21.45
2022-08-26T21:27:26.899Z,21.50
2022-08-26T21:30:17.121Z,21.52
2022-08-26T21:33:07.485Z,21.57
2022-08-26T21:35:56.959Z,21.60
2022-08-26T21:38:45.723Z,21.66
2022-08-26T21:41:34.381Z,21.73
2022-08-26T21:44:22.952Z,21.69
2022-08-26T21:47:11.446Z,21.63
2022-08-26T21:50:03.590Z,21.45
2022-08-26T21:52:52.140Z,21.53
2022-08-26T21:55:42.204Z,21.61
2022-08-26T21:58:30.791Z,21.31
2022-08-26T22:01:21.708Z,21.26
2022-08-26T22:04:11.086Z,21.15
2022-08-26T22:07:00.999Z,21.28
2022-08-26T22:09:49.735Z,21.26
2022-08-26T22:12:38.669Z,21.09
2022-08-26T22:15:27.844Z,21.03
2022-08-26T22:18:17.454Z,20.79
2022-08-26T22:21:09.174Z,20.78
2022-08-26T22:23:59.698Z,20.74
2022-08-26T22:26:48.954Z,20.77
2022-08-26T22:29:37.856Z,20.70
2022-08-26T22:32:26.451Z,20.68
2022-08-26T22:35:29.337Z,20.70
2022-08-26T22:38:18.571Z,20.66
2022-08-26T22:41:09.752Z,20.58
2022-08-26T22:43:58.410Z,20.78
2022-08-26T22:46:47.751Z,20.79
2022-08-26T22:49:36.367Z,20.75
2022-08-26T22:52:24.869Z,20.76
2022-08-26T22:55:13.380Z,20.72
2022-08-26T22:58:03.486Z,20.85
2022-08-26T23:00:52.420Z,20.75
2022-08-26T23:03:44.381Z,20.73
2022-08-26T23:06:33.059Z,20.73
2022-08-26T23:09:21.763Z,20.74
2022-08-26T23:12:10.351Z,20.69
2022-08-26T23:15:00.306Z,20.69
2022-08-26T23:17:55.895Z,20.58
2022-08-26T23:20:47.659Z,20.65
2022-08-26T23:23:36.315Z,20.59
2022-08-26T23:26:24.859Z,20.61
2022-08-26T23:29:15.525Z,20.63
2022-08-26T23:32:05.805Z,20.55
2022-08-26T23:34:58.630Z,20.52
2022-08-26T23:37:48.529Z,20.36
2022-08-26T23:40:41.555Z,20.44
2022-08-26T23:43:31.119Z,20.46
2022-08-26T23:46:21.637Z,20.44
2022-08-26T23:49:15.809Z,20.39
2022-08-26T23:52:24.168Z,20.38
2022-08-26T23:55:15.291Z,20.45
2022-08-26T23:58:05.081Z,20.52
